KBKX

Brookings Regional Airport

Brookings, South Dakota, USA
METAR KBKX 131024Z AUTO 28003KT 3SM UP BR OVC002 M03/M03 A2985 RMK AO2 UPE00B17 P0000 FZRANO
Observed Flight Rules
Dec-13 @ 10:24 UTC (26 minutes ago) Instrument Flight Rules
Wind Visibility Clouds Conditions
280° at 3 knots 3 miles
  • Overcast at 200' AGL
  • Mist
  • Unknown precipitation
Temperatures Readings Precipitation
Current -3°C / 27°F
Dewpoint -3°C / 27°F
Humidity 100%
Altimeter 29.85" Hg
Pressure 1011 hPa
Elevation 502
Current Rain 0.005
METAR KBKX 131024Z AUTO 28003KT 3SM UP BR OVC002 M03/M03 A2985 RMK AO2 UPE00B17 P0000 FZRANO
Observed Flight Rules
Dec-13 @ 10:24 UTC
(26 minutes ago)
LIFR
Wind Visibility
280° at 3 knots 3 miles
Clouds
  • Overcast at 200' AGL
Conditions
  • Mist
  • Unknown precipitation
Temperature Dewpoint
-3°C / 27°F -3°C / 27°F
Humidity Altimeter Pressure
100% 29.85" Hg 1011 hPa
Current Rain
0.005